createdAt,value
2022-08-07T00:00:30.633Z,79.74
2022-08-07T00:02:57.909Z,79.58
2022-08-07T00:05:27.396Z,78.80
2022-08-07T00:07:59.928Z,78.45
2022-08-07T00:10:31.878Z,78.58
2022-08-07T00:13:23.519Z,79.07
2022-08-07T00:15:53.577Z,78.82
2022-08-07T00:18:27.718Z,78.95
2022-08-07T00:21:08.010Z,80.24
2022-08-07T00:23:51.135Z,80.12
2022-08-07T00:26:48.654Z,80.38
2022-08-07T00:29:05.165Z,80.02
2022-08-07T00:31:37.987Z,80.08
2022-08-07T00:34:09.532Z,80.83
2022-08-07T00:36:43.244Z,80.32
2022-08-07T00:39:16.414Z,80.74
2022-08-07T00:42:02.369Z,81.49
2022-08-07T00:44:35.312Z,81.08
2022-08-07T00:47:15.635Z,81.67
2022-08-07T00:50:19.950Z,81.82
2022-08-07T00:52:47.435Z,82.10
2022-08-07T00:55:17.532Z,81.95
2022-08-07T00:57:55.882Z,81.60
2022-08-07T01:00:25.432Z,82.66
2022-08-07T01:02:52.693Z,82.99
2022-08-07T01:05:24.551Z,83.80
2022-08-07T01:07:52.389Z,83.91
2022-08-07T01:10:20.881Z,83.70
2022-08-07T01:12:54.202Z,84.02
2022-08-07T01:16:00.563Z,86.48
2022-08-07T01:18:17.636Z,85.22
2022-08-07T01:21:22.760Z,84.78
2022-08-07T01:23:57.525Z,84.84
2022-08-07T01:26:26.126Z,84.86
2022-08-07T01:28:55.899Z,84.52
2022-08-07T01:31:42.811Z,86.75
2022-08-07T01:34:18.736Z,86.76
2022-08-07T01:36:52.644Z,85.74
2022-08-07T01:39:40.718Z,85.58
2022-08-07T01:42:39.718Z,88.17
2022-08-07T01:45:10.094Z,88.33
2022-08-07T01:48:21.111Z,90.16
2022-08-07T01:50:37.746Z,89.36
2022-08-07T01:53:20.801Z,92.42
2022-08-07T01:56:03.579Z,89.74
2022-08-07T01:58:40.947Z,89.58
2022-08-07T02:01:59.802Z,90.51
2022-08-07T02:04:55.821Z,90.40
2022-08-07T02:07:36.114Z,91.69
2022-08-07T02:10:23.568Z,91.86
2022-08-07T02:12:56.445Z,93.83
2022-08-07T02:15:31.734Z,93.43
2022-08-07T02:18:04.535Z,94.56
2022-08-07T02:20:34.422Z,95.31
2022-08-07T02:23:06.155Z,94.15
2022-08-07T02:26:31.439Z,93.96
2022-08-07T02:28:33.198Z,94.21
2022-08-07T02:31:19.102Z,93.15
2022-08-07T02:34:10.972Z,95.88
2022-08-07T02:36:42.566Z,95.53
2022-08-07T02:39:16.717Z,93.75
2022-08-07T02:42:09.863Z,95.93
2022-08-07T02:44:48.873Z,94.55
2022-08-07T02:47:23.733Z,93.80
2022-08-07T02:49:58.284Z,93.23
2022-08-07T02:52:48.724Z,93.22
2022-08-07T02:56:02.548Z,92.89
2022-08-07T02:58:23.750Z,92.24
2022-08-07T03:01:00.097Z,91.84
2022-08-07T03:03:50.038Z,92.25
2022-08-07T03:06:25.664Z,92.21
2022-08-07T03:09:04.131Z,92.93
2022-08-07T03:11:38.688Z,92.01
2022-08-07T03:14:08.041Z,93.43
2022-08-07T03:16:36.556Z,93.14
2022-08-07T03:19:07.773Z,91.74
2022-08-07T03:21:36.112Z,92.24
2022-08-07T03:24:19.966Z,92.55
2022-08-07T03:26:58.986Z,93.62
2022-08-07T03:29:36.772Z,94.32
2022-08-07T03:32:13.013Z,94.29
2022-08-07T03:34:47.487Z,94.41
2022-08-07T03:37:45.997Z,94.11
2022-08-07T03:40:22.782Z,93.40
2022-08-07T03:42:52.632Z,93.92
2022-08-07T03:45:30.085Z,93.97
2022-08-07T03:48:00.149Z,93.84
2022-08-07T03:50:29.597Z,93.85
2022-08-07T03:53:01.096Z,93.35
2022-08-07T03:55:52.953Z,93.64
2022-08-07T03:59:05.643Z,94.46
2022-08-07T04:01:14.487Z,94.14
2022-08-07T04:03:53.476Z,94.01
2022-08-07T04:06:36.311Z,93.98
2022-08-07T04:09:15.279Z,95.78
2022-08-07T04:12:27.985Z,94.83
2022-08-07T04:14:38.401Z,94.61
2022-08-07T04:17:21.255Z,94.73
2022-08-07T04:19:54.493Z,94.26
2022-08-07T04:22:28.919Z,93.54
2022-08-07T04:25:01.628Z,93.30
2022-08-07T04:27:35.830Z,93.01
2022-08-07T04:30:21.089Z,94.51
2022-08-07T04:32:58.392Z,94.63
2022-08-07T04:35:26.783Z,93.54
2022-08-07T04:38:03.044Z,93.56
2022-08-07T04:40:32.456Z,93.17
2022-08-07T04:43:01.591Z,92.89
2022-08-07T04:46:00.846Z,92.99
2022-08-07T04:48:50.871Z,91.66
2022-08-07T04:52:03.004Z,92.63
2022-08-07T04:55:14.886Z,93.33
2022-08-07T04:58:27.922Z,91.37
2022-08-07T05:01:30.064Z,91.38
2022-08-07T05:04:17.290Z,92.85
2022-08-07T05:07:09.560Z,93.15
2022-08-07T05:10:11.059Z,94.04
2022-08-07T05:14:52.166Z,93.25
2022-08-07T05:16:08.764Z,95.37
2022-08-07T05:18:56.197Z,95.79
2022-08-07T05:22:00.596Z,94.39
2022-08-07T05:24:30.299Z,93.35
2022-08-07T05:27:02.880Z,93.85
2022-08-07T05:29:51.193Z,92.45
2022-08-07T05:32:26.153Z,89.50
2022-08-07T05:34:56.696Z,86.69
2022-08-07T05:37:25.953Z,84.81
2022-08-07T05:40:16.858Z,82.08
2022-08-07T05:42:56.370Z,79.70
2022-08-07T05:45:47.771Z,79.07
2022-08-07T05:48:16.604Z,76.38
2022-08-07T05:50:44.559Z,75.78
2022-08-07T05:54:12.422Z,74.86
2022-08-07T05:56:02.184Z,74.83
2022-08-07T05:58:37.709Z,74.12
2022-08-07T06:01:11.097Z,72.48
2022-08-07T06:03:56.769Z,72.61
2022-08-07T06:06:29.499Z,70.72
2022-08-07T06:08:58.299Z,69.08
2022-08-07T06:11:27.279Z,68.14
2022-08-07T06:14:12.583Z,65.24
2022-08-07T06:16:50.543Z,65.10
2022-08-07T06:19:52.143Z,64.32
2022-08-07T06:22:24.019Z,64.30
2022-08-07T06:24:58.331Z,61.96
2022-08-07T06:27:59.926Z,64.13
2022-08-07T06:30:24.189Z,62.72
2022-08-07T06:33:00.270Z,61.62
2022-08-07T06:35:38.929Z,57.22
2022-08-07T06:38:20.544Z,57.62
2022-08-07T06:40:56.175Z,56.19
2022-08-07T06:43:27.675Z,50.73
2022-08-07T06:46:12.347Z,52.76
2022-08-07T06:48:42.008Z,50.99
2022-08-07T06:51:24.548Z,50.44
2022-08-07T06:55:31.286Z,51.24
2022-08-07T06:56:55.037Z,49.29
2022-08-07T07:00:13.579Z,47.40
2022-08-07T07:02:48.106Z,47.88
2022-08-07T07:05:13.799Z,47.44
2022-08-07T07:08:06.832Z,45.02
2022-08-07T07:10:36.451Z,47.41
2022-08-07T07:13:56.031Z,46.27
2022-08-07T07:16:27.646Z,46.02
2022-08-07T07:19:40.930Z,46.30
2022-08-07T07:22:04.999Z,44.74
2022-08-07T07:24:56.645Z,44.64
2022-08-07T07:27:56.322Z,43.55
2022-08-07T07:30:39.885Z,45.08
2022-08-07T07:33:15.148Z,42.83
2022-08-07T07:36:04.920Z,43.53
2022-08-07T07:38:34.963Z,41.16
2022-08-07T07:41:11.097Z,44.00
2022-08-07T07:44:16.891Z,43.78
2022-08-07T07:46:54.205Z,41.73
2022-08-07T07:50:33.337Z,41.56
2022-08-07T07:52:24.387Z,41.49
2022-08-07T07:54:55.473Z,43.84
2022-08-07T07:57:44.134Z,40.52
2022-08-07T08:00:28.958Z,42.84
2022-08-07T08:03:16.950Z,39.29
2022-08-07T08:06:06.364Z,42.26
2022-08-07T08:08:43.716Z,39.52
2022-08-07T08:11:16.110Z,39.25
2022-08-07T08:13:53.802Z,37.46
2022-08-07T08:16:35.049Z,42.42
2022-08-07T08:20:15.715Z,40.59
2022-08-07T08:22:19.590Z,38.24
2022-08-07T08:25:24.974Z,37.37
2022-08-07T08:28:08.813Z,39.07
2022-08-07T08:30:42.530Z,40.32
2022-08-07T08:33:18.874Z,42.35
2022-08-07T08:35:55.927Z,40.36
2022-08-07T08:38:38.579Z,38.05
2022-08-07T08:41:58.981Z,37.93
2022-08-07T08:45:13.795Z,37.26
2022-08-07T08:48:28.278Z,38.86
2022-08-07T08:51:14.703Z,37.13
2022-08-07T08:54:26.353Z,37.78
2022-08-07T08:57:00.273Z,38.94
2022-08-07T09:00:01.639Z,37.20
2022-08-07T09:03:03.805Z,35.90
2022-08-07T09:06:16.801Z,37.46
2022-08-07T09:09:21.158Z,37.75
2022-08-07T09:12:30.969Z,34.63
2022-08-07T09:16:22.201Z,35.28
2022-08-07T09:19:52.962Z,36.27
2022-08-07T09:24:31.969Z,35.65
2022-08-07T09:26:17.221Z,35.54
2022-08-07T09:30:06.561Z,36.68
2022-08-07T09:32:50.735Z,34.94
2022-08-07T09:36:04.741Z,33.55
2022-08-07T09:39:00.068Z,33.47
2022-08-07T09:42:17.167Z,34.34
2022-08-07T09:47:24.819Z,34.77
2022-08-07T09:48:20.590Z,34.79
2022-08-07T09:52:16.021Z,34.94
2022-08-07T09:54:58.344Z,35.34
2022-08-07T09:58:05.088Z,34.66
2022-08-07T10:01:53.718Z,33.78
2022-08-07T10:04:57.347Z,33.04
2022-08-07T10:08:04.472Z,32.18
2022-08-07T10:11:08.788Z,32.51
2022-08-07T10:14:47.431Z,32.79
2022-08-07T10:18:08.623Z,33.22
2022-08-07T10:22:12.136Z,32.53
2022-08-07T10:24:59.531Z,31.79
2022-08-07T10:28:12.603Z,33.03
2022-08-07T10:31:39.143Z,32.42
2022-08-07T10:34:42.768Z,31.75
2022-08-07T10:38:00.340Z,31.33
2022-08-07T10:40:56.144Z,31.34
2022-08-07T10:44:07.573Z,31.75
2022-08-07T10:47:17.715Z,33.17
2022-08-07T10:50:08.705Z,32.71
2022-08-07T10:53:44.283Z,31.26
2022-08-07T10:56:53.834Z,31.48
2022-08-07T11:00:05.287Z,31.30
2022-08-07T11:03:17.294Z,33.01
2022-08-07T11:06:11.265Z,33.21
2022-08-07T11:10:09.714Z,33.48
2022-08-07T11:12:31.472Z,32.76
2022-08-07T11:15:17.416Z,33.58
2022-08-07T11:18:09.555Z,35.24
2022-08-07T11:21:00.057Z,36.06
2022-08-07T11:23:57.753Z,34.02
2022-08-07T11:26:49.935Z,36.33
2022-08-07T11:29:48.324Z,33.36
2022-08-07T11:33:54.079Z,33.43
2022-08-07T11:37:00.403Z,35.52
2022-08-07T11:40:00.771Z,34.35
2022-08-07T11:43:08.294Z,33.00
2022-08-07T11:46:26.523Z,33.24
2022-08-07T11:50:30.504Z,32.70
2022-08-07T11:54:01.167Z,34.37
2022-08-07T11:56:56.239Z,32.08
2022-08-07T12:00:11.410Z,32.93
2022-08-07T12:03:49.937Z,31.77
2022-08-07T12:07:01.013Z,31.58
2022-08-07T12:10:08.491Z,32.07
2022-08-07T12:13:11.377Z,31.95
2022-08-07T12:16:06.890Z,32.26
2022-08-07T12:19:07.680Z,31.87
2022-08-07T12:22:38.742Z,32.92
2022-08-07T12:26:06.252Z,31.72
2022-08-07T12:29:38.358Z,31.37
2022-08-07T12:32:42.201Z,31.44
2022-08-07T12:35:15.960Z,31.11
2022-08-07T12:38:09.026Z,31.30
2022-08-07T12:40:47.110Z,32.29
2022-08-07T12:44:02.349Z,33.46
2022-08-07T12:46:51.874Z,33.58
2022-08-07T12:49:53.389Z,34.45
2022-08-07T12:52:52.283Z,34.55
2022-08-07T12:56:02.070Z,33.78
2022-08-07T12:58:39.510Z,32.82
2022-08-07T13:01:43.362Z,33.30
2022-08-07T13:05:03.001Z,32.30
2022-08-07T13:08:38.625Z,31.96
2022-08-07T13:12:03.083Z,31.26
2022-08-07T13:16:00.505Z,30.97
2022-08-07T13:18:44.503Z,30.99
2022-08-07T13:21:54.941Z,31.52
2022-08-07T13:24:56.433Z,31.58
2022-08-07T13:28:12.575Z,29.67
2022-08-07T13:30:48.905Z,28.73
2022-08-07T13:34:33.615Z,29.88
2022-08-07T13:37:10.422Z,29.99
2022-08-07T13:40:34.346Z,29.19
2022-08-07T13:43:16.055Z,29.90
2022-08-07T13:46:11.339Z,28.83
2022-08-07T13:48:59.437Z,30.44
2022-08-07T13:52:04.865Z,28.51
2022-08-07T13:54:33.580Z,28.64
2022-08-07T13:57:08.593Z,29.41
2022-08-07T13:59:54.859Z,28.89
2022-08-07T14:02:29.728Z,29.37
2022-08-07T14:05:23.623Z,30.70
2022-08-07T14:07:59.981Z,30.67
2022-08-07T14:10:43.568Z,32.18
2022-08-07T14:13:33.617Z,32.16
2022-08-07T14:16:16.039Z,32.67
2022-08-07T14:18:56.976Z,32.25
2022-08-07T14:22:02.997Z,29.38
2022-08-07T14:24:49.261Z,32.94
2022-08-07T14:28:11.178Z,29.38
2022-08-07T14:30:32.846Z,28.03
2022-08-07T14:33:06.493Z,27.05
2022-08-07T14:35:45.646Z,26.73
2022-08-07T14:38:30.399Z,27.13
2022-08-07T14:41:14.607Z,27.40
2022-08-07T14:43:57.455Z,26.66
2022-08-07T14:46:33.525Z,25.90
2022-08-07T14:49:57.629Z,25.76
2022-08-07T14:52:04.751Z,25.70
2022-08-07T14:54:43.447Z,24.72
2022-08-07T15:00:07.010Z,27.67
2022-08-07T15:02:37.394Z,26.15
2022-08-07T15:05:20.417Z,25.30
2022-08-07T15:07:53.477Z,25.00
2022-08-07T15:10:30.148Z,24.34
2022-08-07T15:13:13.819Z,25.01
2022-08-07T15:15:52.585Z,26.67
2022-08-07T15:18:36.343Z,23.85
2022-08-07T15:21:58.790Z,25.31
2022-08-07T15:25:16.169Z,23.59
2022-08-07T15:27:29.972Z,23.72
2022-08-07T15:30:16.517Z,23.60
2022-08-07T15:33:01.569Z,23.24
2022-08-07T15:38:33.178Z,22.95
2022-08-07T15:42:43.485Z,23.95
2022-08-07T15:44:23.613Z,23.92
2022-08-07T15:47:16.885Z,22.51
2022-08-07T15:50:04.159Z,21.83
2022-08-07T15:52:38.367Z,23.81
2022-08-07T15:55:15.298Z,21.79
2022-08-07T15:57:53.293Z,21.22
2022-08-07T16:00:40.008Z,22.47
2022-08-07T16:03:46.360Z,22.43
2022-08-07T16:06:16.667Z,23.46
2022-08-07T16:08:49.690Z,22.68
2022-08-07T16:11:53.502Z,21.68
2022-08-07T16:14:59.213Z,22.01
2022-08-07T16:18:01.651Z,22.97
2022-08-07T16:21:56.990Z,22.35
2022-08-07T16:24:35.305Z,22.92
2022-08-07T16:27:24.384Z,23.58
2022-08-07T16:30:30.131Z,25.40
2022-08-07T16:34:02.679Z,26.20
2022-08-07T16:37:02.737Z,28.86
2022-08-07T16:41:02.226Z,27.90
2022-08-07T16:44:47.154Z,28.61
2022-08-07T16:48:09.563Z,30.06
2022-08-07T16:52:49.130Z,30.28
2022-08-07T16:55:08.234Z,31.25
2022-08-07T16:58:04.429Z,32.98
2022-08-07T17:01:41.210Z,32.17
2022-08-07T17:04:31.097Z,32.41
2022-08-07T17:07:28.193Z,32.09
2022-08-07T17:10:32.716Z,31.58
2022-08-07T17:14:18.525Z,31.97
2022-08-07T17:16:56.328Z,32.92
2022-08-07T17:20:00.802Z,31.97
2022-08-07T17:23:32.270Z,30.34
2022-08-07T17:26:23.409Z,32.60
2022-08-07T17:30:14.100Z,30.88
2022-08-07T17:32:52.219Z,31.18
2022-08-07T17:35:54.910Z,29.81
2022-08-07T17:38:50.296Z,30.48
2022-08-07T17:42:01.596Z,30.05
2022-08-07T17:44:50.337Z,30.58
2022-08-07T17:48:10.360Z,32.84
2022-08-07T17:51:59.935Z,35.01
2022-08-07T17:54:53.631Z,36.49
2022-08-07T17:57:56.523Z,34.90
2022-08-07T18:00:34.213Z,34.52
2022-08-07T18:04:03.701Z,36.02
2022-08-07T18:06:36.951Z,38.14
2022-08-07T18:09:09.739Z,38.31
2022-08-07T18:12:17.308Z,38.57
2022-08-07T18:15:08.602Z,39.84
2022-08-07T18:18:47.687Z,41.60
2022-08-07T18:21:41.351Z,39.43
2022-08-07T18:24:37.139Z,39.08
2022-08-07T18:27:20.889Z,39.22
2022-08-07T18:30:31.043Z,40.31
2022-08-07T18:34:06.497Z,41.92
2022-08-07T18:38:56.297Z,41.47
2022-08-07T18:41:08.209Z,43.48
2022-08-07T18:44:12.657Z,41.37
2022-08-07T18:47:02.395Z,42.50
2022-08-07T18:50:39.702Z,43.47
2022-08-07T18:53:45.194Z,44.30
2022-08-07T18:56:57.980Z,45.08
2022-08-07T19:00:33.421Z,45.52
2022-08-07T19:03:36.172Z,47.66
2022-08-07T19:06:34.572Z,48.36
2022-08-07T19:09:55.426Z,49.25
2022-08-07T19:12:48.958Z,49.00
2022-08-07T19:16:05.826Z,49.53
2022-08-07T19:19:02.579Z,49.09
2022-08-07T19:21:56.822Z,49.43
2022-08-07T19:24:50.190Z,51.50
2022-08-07T19:30:54.655Z,50.34
2022-08-07T19:31:04.231Z,51.72
2022-08-07T19:33:13.087Z,51.43
2022-08-07T19:35:57.417Z,51.85
2022-08-07T19:38:34.091Z,51.88
2022-08-07T19:41:04.343Z,51.27
2022-08-07T19:43:46.070Z,52.54
2022-08-07T19:46:31.393Z,51.68
2022-08-07T19:49:17.440Z,51.99
2022-08-07T19:52:05.959Z,52.97
2022-08-07T19:54:56.723Z,52.80
2022-08-07T19:58:01.915Z,54.11
2022-08-07T20:00:32.145Z,54.51
2022-08-07T20:03:34.581Z,53.75
2022-08-07T20:06:04.006Z,55.65
2022-08-07T20:08:40.993Z,55.20
2022-08-07T20:11:23.104Z,54.74
2022-08-07T20:14:20.777Z,55.75
2022-08-07T20:16:54.308Z,54.57
2022-08-07T20:19:28.843Z,55.97
2022-08-07T20:22:28.993Z,55.93
2022-08-07T20:25:19.547Z,54.84
2022-08-07T20:27:58.472Z,56.00
2022-08-07T20:30:35.676Z,57.39
2022-08-07T20:33:36.573Z,58.23
2022-08-07T20:36:03.428Z,57.33
2022-08-07T20:38:35.316Z,58.62
2022-08-07T20:41:27.558Z,57.29
2022-08-07T20:44:00.038Z,58.00
2022-08-07T20:46:42.803Z,58.52
2022-08-07T20:49:57.966Z,59.41
2022-08-07T20:52:14.239Z,59.44
2022-08-07T20:54:53.242Z,60.41
2022-08-07T20:58:02.501Z,60.34
2022-08-07T21:00:44.492Z,59.65
2022-08-07T21:03:23.205Z,60.40
2022-08-07T21:06:22.361Z,60.72
2022-08-07T21:09:13.680Z,60.38
2022-08-07T21:11:50.029Z,60.47
2022-08-07T21:14:33.999Z,61.08
2022-08-07T21:18:03.121Z,60.84
2022-08-07T21:20:05.767Z,60.79
2022-08-07T21:22:45.071Z,62.34
2022-08-07T21:26:20.483Z,61.83
2022-08-07T21:29:15.685Z,62.23
2022-08-07T21:32:47.429Z,61.89
2022-08-07T21:35:12.691Z,62.76
2022-08-07T21:38:27.709Z,64.11
2022-08-07T21:41:24.613Z,63.33
2022-08-07T21:44:14.630Z,64.18
2022-08-07T21:47:23.725Z,64.96
2022-08-07T21:50:14.424Z,65.26
2022-08-07T21:53:07.796Z,65.55
2022-08-07T21:56:35.799Z,65.04
2022-08-07T22:00:03.971Z,65.62
2022-08-07T22:03:03.604Z,65.71
2022-08-07T22:05:50.084Z,66.48
2022-08-07T22:08:26.503Z,67.18
2022-08-07T22:11:03.846Z,66.77
2022-08-07T22:13:52.527Z,66.85
2022-08-07T22:16:43.194Z,67.50
2022-08-07T22:20:02.813Z,67.36
2022-08-07T22:22:46.858Z,68.13
2022-08-07T22:25:42.217Z,68.30
2022-08-07T22:28:40.848Z,68.32
2022-08-07T22:32:00.130Z,68.85
2022-08-07T22:34:52.950Z,69.32
2022-08-07T22:38:02.932Z,69.28
2022-08-07T22:41:16.361Z,69.30
2022-08-07T22:43:51.914Z,69.03
2022-08-07T22:47:06.128Z,69.77
2022-08-07T22:50:29.119Z,70.18
2022-08-07T22:54:05.695Z,70.14
2022-08-07T22:57:00.941Z,70.63
2022-08-07T23:00:08.858Z,70.61
2022-08-07T23:03:58.220Z,69.92
2022-08-07T23:07:33.600Z,70.47
2022-08-07T23:11:13.207Z,70.41
2022-08-07T23:14:23.496Z,70.35
2022-08-07T23:17:54.662Z,70.25
2022-08-07T23:20:56.478Z,70.11
2022-08-07T23:24:21.049Z,70.52
2022-08-07T23:27:34.036Z,70.47
2022-08-07T23:30:35.562Z,70.89
2022-08-07T23:34:22.649Z,71.39
2022-08-07T23:38:00.959Z,72.35
2022-08-07T23:40:53.045Z,72.74
2022-08-07T23:44:11.552Z,73.56
2022-08-07T23:47:24.526Z,73.41
2022-08-07T23:50:54.529Z,73.49
2022-08-07T23:53:49.470Z,73.26
2022-08-07T23:57:12.330Z,73.15
